sensor_id;sensor_type;location;lat;lon;timestamp;P1;durP1;ratioP1;P2;durP2;ratioP2
44276;SDS011;29973;43.742;1.236;2023-04-03T00:00:11;10.40;;;4.45;;
44276;SDS011;29973;43.742;1.236;2023-04-03T00:02:37;10.02;;;4.85;;
44276;SDS011;29973;43.742;1.236;2023-04-03T00:05:03;6.53;;;3.70;;
44276;SDS011;29973;43.742;1.236;2023-04-03T00:07:29;9.15;;;4.18;;
44276;SDS011;29973;43.742;1.236;2023-04-03T00:09:55;5.63;;;3.90;;
44276;SDS011;29973;43.742;1.236;2023-04-03T00:12:21;6.68;;;4.43;;
44276;SDS011;29973;43.742;1.236;2023-04-03T00:14:47;8.75;;;3.92;;
44276;SDS011;29973;43.742;1.236;2023-04-03T00:17:12;9.45;;;4.32;;
44276;SDS011;29973;43.742;1.236;2023-04-03T00:19:38;11.65;;;4.28;;
44276;SDS011;29973;43.742;1.236;2023-04-03T00:22:04;6.85;;;4.43;;
44276;SDS011;29973;43.742;1.236;2023-04-03T00:24:29;7.70;;;4.43;;
44276;SDS011;29973;43.742;1.236;2023-04-03T00:26:55;7.72;;;4.15;;
44276;SDS011;29973;43.742;1.236;2023-04-03T00:29:21;7.75;;;3.55;;
44276;SDS011;29973;43.742;1.236;2023-04-03T00:31:47;7.28;;;4.43;;
44276;SDS011;29973;43.742;1.236;2023-04-03T00:34:12;8.35;;;4.68;;
44276;SDS011;29973;43.742;1.236;2023-04-03T00:36:38;10.27;;;3.95;;
44276;SDS011;29973;43.742;1.236;2023-04-03T00:39:04;6.97;;;4.05;;
44276;SDS011;29973;43.742;1.236;2023-04-03T00:41:30;7.43;;;4.13;;
44276;SDS011;29973;43.742;1.236;2023-04-03T00:43:57;6.85;;;3.88;;
44276;SDS011;29973;43.742;1.236;2023-04-03T00:46:23;16.15;;;5.07;;
44276;SDS011;29973;43.742;1.236;2023-04-03T00:48:49;9.18;;;4.90;;
44276;SDS011;29973;43.742;1.236;2023-04-03T00:51:24;6.75;;;4.32;;
44276;SDS011;29973;43.742;1.236;2023-04-03T00:53:55;11.85;;;4.57;;
44276;SDS011;29973;43.742;1.236;2023-04-03T00:56:25;8.25;;;4.38;;
44276;SDS011;29973;43.742;1.236;2023-04-03T01:01:27;6.78;;;3.92;;
44276;SDS011;29973;43.742;1.236;2023-04-03T01:03:58;13.85;;;5.15;;
44276;SDS011;29973;43.742;1.236;2023-04-03T01:06:26;7.43;;;4.03;;
44276;SDS011;29973;43.742;1.236;2023-04-03T01:08:57;8.65;;;4.20;;
44276;SDS011;29973;43.742;1.236;2023-04-03T01:11:23;8.00;;;4.97;;
44276;SDS011;29973;43.742;1.236;2023-04-03T01:13:50;7.00;;;4.80;;
44276;SDS011;29973;43.742;1.236;2023-04-03T01:16:15;7.68;;;4.32;;
44276;SDS011;29973;43.742;1.236;2023-04-03T01:18:41;8.52;;;4.60;;
44276;SDS011;29973;43.742;1.236;2023-04-03T01:26:23;9.90;;;5.47;;
44276;SDS011;29973;43.742;1.236;2023-04-03T01:28:50;10.15;;;5.38;;
44276;SDS011;29973;43.742;1.236;2023-04-03T01:31:21;9.38;;;5.78;;
44276;SDS011;29973;43.742;1.236;2023-04-03T01:33:47;10.13;;;5.05;;
44276;SDS011;29973;43.742;1.236;2023-04-03T01:36:15;8.38;;;4.97;;
44276;SDS011;29973;43.742;1.236;2023-04-03T01:38:53;8.40;;;5.10;;
44276;SDS011;29973;43.742;1.236;2023-04-03T01:41:20;9.52;;;5.20;;
44276;SDS011;29973;43.742;1.236;2023-04-03T01:43:46;15.00;;;5.13;;
44276;SDS011;29973;43.742;1.236;2023-04-03T01:46:13;10.35;;;5.03;;
44276;SDS011;29973;43.742;1.236;2023-04-03T01:48:40;14.55;;;5.43;;
44276;SDS011;29973;43.742;1.236;2023-04-03T01:51:06;9.05;;;5.32;;
44276;SDS011;29973;43.742;1.236;2023-04-03T01:53:31;8.77;;;5.45;;
44276;SDS011;29973;43.742;1.236;2023-04-03T01:55:57;8.48;;;5.53;;
44276;SDS011;29973;43.742;1.236;2023-04-03T01:58:23;8.05;;;5.10;;
44276;SDS011;29973;43.742;1.236;2023-04-03T02:00:49;10.98;;;4.57;;
44276;SDS011;29973;43.742;1.236;2023-04-03T02:03:16;12.35;;;5.40;;
44276;SDS011;29973;43.742;1.236;2023-04-03T02:05:42;8.57;;;5.03;;
44276;SDS011;29973;43.742;1.236;2023-04-03T02:08:07;10.48;;;5.25;;
44276;SDS011;29973;43.742;1.236;2023-04-03T02:10:33;12.35;;;5.47;;
44276;SDS011;29973;43.742;1.236;2023-04-03T02:12:59;10.93;;;5.38;;
44276;SDS011;29973;43.742;1.236;2023-04-03T02:15:25;10.30;;;5.60;;
44276;SDS011;29973;43.742;1.236;2023-04-03T02:17:51;10.02;;;5.93;;
44276;SDS011;29973;43.742;1.236;2023-04-03T02:20:17;11.60;;;5.82;;
44276;SDS011;29973;43.742;1.236;2023-04-03T02:22:43;8.95;;;5.22;;
44276;SDS011;29973;43.742;1.236;2023-04-03T02:25:09;8.55;;;5.57;;
44276;SDS011;29973;43.742;1.236;2023-04-03T02:27:35;10.23;;;5.82;;
44276;SDS011;29973;43.742;1.236;2023-04-03T02:30:02;7.65;;;4.78;;
44276;SDS011;29973;43.742;1.236;2023-04-03T02:32:28;8.68;;;5.43;;
44276;SDS011;29973;43.742;1.236;2023-04-03T02:34:54;10.95;;;6.32;;
44276;SDS011;29973;43.742;1.236;2023-04-03T02:37:20;8.70;;;5.25;;
44276;SDS011;29973;43.742;1.236;2023-04-03T02:39:46;7.35;;;5.43;;
44276;SDS011;29973;43.742;1.236;2023-04-03T02:42:12;10.07;;;5.60;;
44276;SDS011;29973;43.742;1.236;2023-04-03T02:44:37;11.70;;;6.30;;
44276;SDS011;29973;43.742;1.236;2023-04-03T02:47:04;9.43;;;5.47;;
44276;SDS011;29973;43.742;1.236;2023-04-03T02:49:30;13.18;;;5.43;;
44276;SDS011;29973;43.742;1.236;2023-04-03T02:51:56;11.23;;;5.47;;
44276;SDS011;29973;43.742;1.236;2023-04-03T02:54:22;7.97;;;5.78;;
44276;SDS011;29973;43.742;1.236;2023-04-03T02:56:49;9.32;;;5.88;;
44276;SDS011;29973;43.742;1.236;2023-04-03T02:59:15;10.80;;;5.45;;
44276;SDS011;29973;43.742;1.236;2023-04-03T03:01:41;8.18;;;5.32;;
44276;SDS011;29973;43.742;1.236;2023-04-03T03:04:06;9.13;;;6.38;;
44276;SDS011;29973;43.742;1.236;2023-04-03T03:06:32;10.10;;;6.53;;
44276;SDS011;29973;43.742;1.236;2023-04-03T03:08:58;8.13;;;5.70;;
44276;SDS011;29973;43.742;1.236;2023-04-03T03:11:24;11.13;;;6.38;;
44276;SDS011;29973;43.742;1.236;2023-04-03T03:13:50;11.13;;;6.15;;
44276;SDS011;29973;43.742;1.236;2023-04-03T03:16:16;11.68;;;6.15;;
44276;SDS011;29973;43.742;1.236;2023-04-03T03:18:42;9.20;;;6.28;;
44276;SDS011;29973;43.742;1.236;2023-04-03T03:21:08;12.25;;;7.03;;
44276;SDS011;29973;43.742;1.236;2023-04-03T03:23:35;12.35;;;6.85;;
44276;SDS011;29973;43.742;1.236;2023-04-03T03:26:02;9.77;;;6.68;;
44276;SDS011;29973;43.742;1.236;2023-04-03T03:28:30;9.63;;;6.68;;
44276;SDS011;29973;43.742;1.236;2023-04-03T03:30:57;11.38;;;6.45;;
44276;SDS011;29973;43.742;1.236;2023-04-03T03:33:23;12.90;;;7.13;;
44276;SDS011;29973;43.742;1.236;2023-04-03T03:35:50;10.48;;;6.90;;
44276;SDS011;29973;43.742;1.236;2023-04-03T03:38:16;8.80;;;6.40;;
44276;SDS011;29973;43.742;1.236;2023-04-03T03:40:42;9.77;;;6.95;;
44276;SDS011;29973;43.742;1.236;2023-04-03T03:43:07;14.70;;;7.75;;
44276;SDS011;29973;43.742;1.236;2023-04-03T03:45:33;10.82;;;7.13;;
44276;SDS011;29973;43.742;1.236;2023-04-03T03:47:59;7.82;;;5.97;;
44276;SDS011;29973;43.742;1.236;2023-04-03T03:50:25;10.35;;;7.78;;
44276;SDS011;29973;43.742;1.236;2023-04-03T03:52:51;17.13;;;7.00;;
44276;SDS011;29973;43.742;1.236;2023-04-03T03:55:17;12.68;;;7.15;;
44276;SDS011;29973;43.742;1.236;2023-04-03T03:57:43;10.70;;;6.95;;
44276;SDS011;29973;43.742;1.236;2023-04-03T04:00:08;10.63;;;7.57;;
44276;SDS011;29973;43.742;1.236;2023-04-03T04:02:35;11.73;;;7.40;;
44276;SDS011;29973;43.742;1.236;2023-04-03T04:05:00;9.60;;;6.75;;
44276;SDS011;29973;43.742;1.236;2023-04-03T04:07:26;12.13;;;6.70;;
44276;SDS011;29973;43.742;1.236;2023-04-03T04:09:54;10.27;;;6.60;;
44276;SDS011;29973;43.742;1.236;2023-04-03T04:12:20;12.20;;;7.55;;
44276;SDS011;29973;43.742;1.236;2023-04-03T04:14:46;11.52;;;7.57;;
44276;SDS011;29973;43.742;1.236;2023-04-03T04:17:12;12.10;;;7.38;;
44276;SDS011;29973;43.742;1.236;2023-04-03T04:19:38;10.20;;;7.78;;
44276;SDS011;29973;43.742;1.236;2023-04-03T04:22:04;8.27;;;6.95;;
44276;SDS011;29973;43.742;1.236;2023-04-03T04:24:30;14.00;;;7.53;;
44276;SDS011;29973;43.742;1.236;2023-04-03T04:26:56;14.13;;;6.63;;
44276;SDS011;29973;43.742;1.236;2023-04-03T04:29:22;16.98;;;8.05;;
44276;SDS011;29973;43.742;1.236;2023-04-03T04:31:47;11.15;;;7.18;;
44276;SDS011;29973;43.742;1.236;2023-04-03T04:34:13;15.65;;;7.70;;
44276;SDS011;29973;43.742;1.236;2023-04-03T04:36:39;14.35;;;8.32;;
44276;SDS011;29973;43.742;1.236;2023-04-03T04:39:05;10.02;;;7.72;;
44276;SDS011;29973;43.742;1.236;2023-04-03T04:41:31;11.32;;;8.18;;
44276;SDS011;29973;43.742;1.236;2023-04-03T04:43:57;18.13;;;8.93;;
44276;SDS011;29973;43.742;1.236;2023-04-03T04:46:23;16.55;;;8.43;;
44276;SDS011;29973;43.742;1.236;2023-04-03T04:48:49;14.10;;;7.60;;
44276;SDS011;29973;43.742;1.236;2023-04-03T04:51:15;13.40;;;8.50;;
44276;SDS011;29973;43.742;1.236;2023-04-03T04:53:41;14.15;;;8.30;;
44276;SDS011;29973;43.742;1.236;2023-04-03T04:56:07;11.30;;;8.18;;
44276;SDS011;29973;43.742;1.236;2023-04-03T04:58:33;12.55;;;8.10;;
44276;SDS011;29973;43.742;1.236;2023-04-03T05:01:00;10.93;;;8.75;;
44276;SDS011;29973;43.742;1.236;2023-04-03T05:03:26;16.65;;;8.65;;
44276;SDS011;29973;43.742;1.236;2023-04-03T05:05:52;15.13;;;8.57;;
44276;SDS011;29973;43.742;1.236;2023-04-03T05:08:18;14.05;;;8.32;;
44276;SDS011;29973;43.742;1.236;2023-04-03T05:10:47;11.55;;;8.27;;
44276;SDS011;29973;43.742;1.236;2023-04-03T05:13:12;12.52;;;8.20;;
44276;SDS011;29973;43.742;1.236;2023-04-03T05:18:08;12.15;;;7.15;;
44276;SDS011;29973;43.742;1.236;2023-04-03T05:20:34;11.15;;;7.22;;
44276;SDS011;29973;43.742;1.236;2023-04-03T05:23:00;11.18;;;7.80;;
44276;SDS011;29973;43.742;1.236;2023-04-03T05:25:26;12.00;;;8.32;;
44276;SDS011;29973;43.742;1.236;2023-04-03T05:27:52;15.43;;;7.07;;
44276;SDS011;29973;43.742;1.236;2023-04-03T05:30:18;17.45;;;7.78;;
44276;SDS011;29973;43.742;1.236;2023-04-03T05:32:44;16.30;;;7.97;;
44276;SDS011;29973;43.742;1.236;2023-04-03T05:35:10;11.98;;;7.05;;
44276;SDS011;29973;43.742;1.236;2023-04-03T05:37:36;14.48;;;7.47;;
44276;SDS011;29973;43.742;1.236;2023-04-03T05:40:04;16.17;;;7.63;;
44276;SDS011;29973;43.742;1.236;2023-04-03T05:42:30;12.10;;;7.53;;
44276;SDS011;29973;43.742;1.236;2023-04-03T05:44:56;13.65;;;7.60;;
44276;SDS011;29973;43.742;1.236;2023-04-03T05:47:22;7.93;;;6.18;;
44276;SDS011;29973;43.742;1.236;2023-04-03T05:49:48;13.77;;;8.60;;
44276;SDS011;29973;43.742;1.236;2023-04-03T05:52:22;11.05;;;7.45;;
44276;SDS011;29973;43.742;1.236;2023-04-03T05:54:53;10.90;;;7.30;;
44276;SDS011;29973;43.742;1.236;2023-04-03T05:57:20;12.32;;;7.75;;
44276;SDS011;29973;43.742;1.236;2023-04-03T05:59:46;11.25;;;7.25;;
44276;SDS011;29973;43.742;1.236;2023-04-03T06:02:13;12.32;;;8.00;;
44276;SDS011;29973;43.742;1.236;2023-04-03T06:04:41;9.55;;;7.05;;
44276;SDS011;29973;43.742;1.236;2023-04-03T06:07:08;13.10;;;8.32;;
44276;SDS011;29973;43.742;1.236;2023-04-03T06:09:46;15.18;;;7.60;;
44276;SDS011;29973;43.742;1.236;2023-04-03T06:12:13;11.57;;;6.65;;
44276;SDS011;29973;43.742;1.236;2023-04-03T06:14:39;12.25;;;7.07;;
44276;SDS011;29973;43.742;1.236;2023-04-03T06:17:05;11.02;;;6.85;;
44276;SDS011;29973;43.742;1.236;2023-04-03T06:19:31;11.10;;;6.95;;
44276;SDS011;29973;43.742;1.236;2023-04-03T06:21:56;15.77;;;6.43;;
44276;SDS011;29973;43.742;1.236;2023-04-03T06:24:22;10.02;;;6.65;;
44276;SDS011;29973;43.742;1.236;2023-04-03T06:26:50;8.90;;;6.40;;
44276;SDS011;29973;43.742;1.236;2023-04-03T06:29:16;10.88;;;6.22;;
44276;SDS011;29973;43.742;1.236;2023-04-03T06:31:42;9.88;;;6.18;;
44276;SDS011;29973;43.742;1.236;2023-04-03T06:34:08;12.43;;;6.60;;
44276;SDS011;29973;43.742;1.236;2023-04-03T06:36:35;11.55;;;7.03;;
44276;SDS011;29973;43.742;1.236;2023-04-03T06:39:01;12.80;;;6.82;;
44276;SDS011;29973;43.742;1.236;2023-04-03T06:41:28;10.18;;;5.78;;
44276;SDS011;29973;43.742;1.236;2023-04-03T06:43:54;11.65;;;6.25;;
44276;SDS011;29973;43.742;1.236;2023-04-03T06:46:21;10.15;;;6.78;;
44276;SDS011;29973;43.742;1.236;2023-04-03T06:48:48;10.30;;;6.13;;
44276;SDS011;29973;43.742;1.236;2023-04-03T06:53:46;12.80;;;6.43;;
44276;SDS011;29973;43.742;1.236;2023-04-03T06:56:13;10.20;;;5.20;;
44276;SDS011;29973;43.742;1.236;2023-04-03T06:58:40;11.82;;;5.85;;
44276;SDS011;29973;43.742;1.236;2023-04-03T07:01:06;10.27;;;5.43;;
44276;SDS011;29973;43.742;1.236;2023-04-03T07:03:35;7.28;;;4.93;;
44276;SDS011;29973;43.742;1.236;2023-04-03T07:06:02;6.15;;;5.43;;
44276;SDS011;29973;43.742;1.236;2023-04-03T07:08:28;12.25;;;5.50;;
44276;SDS011;29973;43.742;1.236;2023-04-03T07:10:54;6.80;;;5.43;;
44276;SDS011;29973;43.742;1.236;2023-04-03T07:13:20;10.50;;;5.97;;
44276;SDS011;29973;43.742;1.236;2023-04-03T07:15:46;9.55;;;6.22;;
44276;SDS011;29973;43.742;1.236;2023-04-03T07:18:13;9.77;;;5.82;;
44276;SDS011;29973;43.742;1.236;2023-04-03T07:20:39;11.95;;;5.40;;
44276;SDS011;29973;43.742;1.236;2023-04-03T07:23:05;8.55;;;4.95;;
44276;SDS011;29973;43.742;1.236;2023-04-03T07:25:31;7.57;;;4.80;;
44276;SDS011;29973;43.742;1.236;2023-04-03T07:27:57;9.13;;;5.18;;
44276;SDS011;29973;43.742;1.236;2023-04-03T07:30:23;9.60;;;4.55;;
44276;SDS011;29973;43.742;1.236;2023-04-03T07:32:49;8.57;;;5.53;;
44276;SDS011;29973;43.742;1.236;2023-04-03T07:35:15;7.85;;;5.38;;
44276;SDS011;29973;43.742;1.236;2023-04-03T07:37:41;7.22;;;4.90;;
44276;SDS011;29973;43.742;1.236;2023-04-03T07:40:07;9.10;;;5.10;;
44276;SDS011;29973;43.742;1.236;2023-04-03T07:42:33;8.75;;;4.88;;
44276;SDS011;29973;43.742;1.236;2023-04-03T07:45:01;9.90;;;4.35;;
44276;SDS011;29973;43.742;1.236;2023-04-03T07:47:28;13.55;;;6.03;;
44276;SDS011;29973;43.742;1.236;2023-04-03T07:49:55;7.70;;;4.85;;
44276;SDS011;29973;43.742;1.236;2023-04-03T07:52:22;6.05;;;5.00;;
44276;SDS011;29973;43.742;1.236;2023-04-03T07:54:48;8.13;;;4.50;;
44276;SDS011;29973;43.742;1.236;2023-04-03T07:57:13;10.40;;;5.18;;
44276;SDS011;29973;43.742;1.236;2023-04-03T07:59:39;9.70;;;4.88;;
44276;SDS011;29973;43.742;1.236;2023-04-03T08:02:11;11.65;;;4.72;;
44276;SDS011;29973;43.742;1.236;2023-04-03T08:04:37;16.23;;;5.10;;
44276;SDS011;29973;43.742;1.236;2023-04-03T08:07:03;9.35;;;4.68;;
44276;SDS011;29973;43.742;1.236;2023-04-03T08:09:29;12.15;;;5.18;;
44276;SDS011;29973;43.742;1.236;2023-04-03T08:11:56;9.93;;;4.53;;
44276;SDS011;29973;43.742;1.236;2023-04-03T08:14:23;9.43;;;5.13;;
44276;SDS011;29973;43.742;1.236;2023-04-03T08:16:49;9.27;;;4.82;;
44276;SDS011;29973;43.742;1.236;2023-04-03T08:19:14;9.02;;;4.35;;
44276;SDS011;29973;43.742;1.236;2023-04-03T08:21:43;10.23;;;4.50;;
44276;SDS011;29973;43.742;1.236;2023-04-03T08:24:09;8.20;;;4.50;;
44276;SDS011;29973;43.742;1.236;2023-04-03T08:26:35;6.80;;;4.38;;
44276;SDS011;29973;43.742;1.236;2023-04-03T08:29:01;11.13;;;4.28;;
44276;SDS011;29973;43.742;1.236;2023-04-03T08:31:27;10.00;;;4.40;;
44276;SDS011;29973;43.742;1.236;2023-04-03T08:33:53;6.68;;;3.58;;
44276;SDS011;29973;43.742;1.236;2023-04-03T08:36:23;7.78;;;3.67;;
44276;SDS011;29973;43.742;1.236;2023-04-03T08:38:51;8.40;;;4.30;;
44276;SDS011;29973;43.742;1.236;2023-04-03T08:49:30;13.18;;;5.20;;
44276;SDS011;29973;43.742;1.236;2023-04-03T08:52:04;12.30;;;4.35;;
44276;SDS011;29973;43.742;1.236;2023-04-03T08:54:52;9.02;;;4.25;;
44276;SDS011;29973;43.742;1.236;2023-04-03T08:57:29;8.10;;;3.75;;
44276;SDS011;29973;43.742;1.236;2023-04-03T09:00:03;10.43;;;4.13;;
44276;SDS011;29973;43.742;1.236;2023-04-03T09:02:43;5.97;;;3.60;;
44276;SDS011;29973;43.742;1.236;2023-04-03T09:08:05;9.77;;;4.07;;
44276;SDS011;29973;43.742;1.236;2023-04-03T09:10:39;8.00;;;3.53;;
44276;SDS011;29973;43.742;1.236;2023-04-03T09:13:21;7.32;;;3.45;;
44276;SDS011;29973;43.742;1.236;2023-04-03T09:16:15;7.53;;;3.55;;
44276;SDS011;29973;43.742;1.236;2023-04-03T09:18:53;6.22;;;3.85;;
44276;SDS011;29973;43.742;1.236;2023-04-03T09:21:43;10.35;;;4.00;;
44276;SDS011;29973;43.742;1.236;2023-04-03T09:24:14;6.38;;;3.85;;
44276;SDS011;29973;43.742;1.236;2023-04-03T09:29:28;8.60;;;3.50;;
44276;SDS011;29973;43.742;1.236;2023-04-03T09:31:59;8.90;;;3.40;;
44276;SDS011;29973;43.742;1.236;2023-04-03T09:34:32;8.48;;;3.63;;
44276;SDS011;29973;43.742;1.236;2023-04-03T09:37:01;16.85;;;3.90;;
44276;SDS011;29973;43.742;1.236;2023-04-03T09:39:32;6.25;;;3.30;;
44276;SDS011;29973;43.742;1.236;2023-04-03T09:42:21;7.47;;;3.65;;
44276;SDS011;29973;43.742;1.236;2023-04-03T09:47:29;8.18;;;3.35;;
44276;SDS011;29973;43.742;1.236;2023-04-03T09:52:43;7.38;;;2.90;;
44276;SDS011;29973;43.742;1.236;2023-04-03T09:55:17;7.10;;;2.65;;
44276;SDS011;29973;43.742;1.236;2023-04-03T09:57:52;6.85;;;3.20;;
44276;SDS011;29973;43.742;1.236;2023-04-03T10:00:25;8.30;;;3.47;;
44276;SDS011;29973;43.742;1.236;2023-04-03T10:02:56;7.55;;;3.88;;
44276;SDS011;29973;43.742;1.236;2023-04-03T10:05:32;7.40;;;2.65;;
44276;SDS011;29973;43.742;1.236;2023-04-03T10:10:39;7.43;;;2.92;;
44276;SDS011;29973;43.742;1.236;2023-04-03T10:13:09;6.32;;;2.58;;
44276;SDS011;29973;43.742;1.236;2023-04-03T10:18:29;4.20;;;2.20;;
44276;SDS011;29973;43.742;1.236;2023-04-03T10:21:09;5.93;;;2.15;;
44276;SDS011;29973;43.742;1.236;2023-04-03T10:24:13;3.70;;;1.92;;
44276;SDS011;29973;43.742;1.236;2023-04-03T10:34:30;5.25;;;1.90;;
44276;SDS011;29973;43.742;1.236;2023-04-03T10:37:21;4.07;;;1.63;;
44276;SDS011;29973;43.742;1.236;2023-04-03T10:42:47;5.90;;;1.98;;
44276;SDS011;29973;43.742;1.236;2023-04-03T10:45:26;3.45;;;1.90;;
44276;SDS011;29973;43.742;1.236;2023-04-03T10:56:31;4.88;;;2.05;;
44276;SDS011;29973;43.742;1.236;2023-04-03T10:59:02;6.80;;;2.10;;
44276;SDS011;29973;43.742;1.236;2023-04-03T11:01:41;3.15;;;1.50;;
44276;SDS011;29973;43.742;1.236;2023-04-03T11:04:09;4.63;;;2.08;;
44276;SDS011;29973;43.742;1.236;2023-04-03T11:07:19;6.78;;;2.13;;
44276;SDS011;29973;43.742;1.236;2023-04-03T11:09:33;8.75;;;2.30;;
44276;SDS011;29973;43.742;1.236;2023-04-03T11:14:52;7.95;;;2.00;;
44276;SDS011;29973;43.742;1.236;2023-04-03T11:20:08;3.28;;;1.73;;
44276;SDS011;29973;43.742;1.236;2023-04-03T11:22:42;4.93;;;2.00;;
44276;SDS011;29973;43.742;1.236;2023-04-03T11:27:40;5.30;;;2.10;;
44276;SDS011;29973;43.742;1.236;2023-04-03T11:30:19;4.03;;;2.00;;
44276;SDS011;29973;43.742;1.236;2023-04-03T11:35:48;3.05;;;1.95;;
44276;SDS011;29973;43.742;1.236;2023-04-03T11:38:24;7.07;;;1.90;;
44276;SDS011;29973;43.742;1.236;2023-04-03T11:40:54;2.83;;;1.73;;
44276;SDS011;29973;43.742;1.236;2023-04-03T11:43:27;3.42;;;1.25;;
44276;SDS011;29973;43.742;1.236;2023-04-03T11:46:00;8.10;;;2.15;;
44276;SDS011;29973;43.742;1.236;2023-04-03T11:51:43;5.03;;;1.70;;
44276;SDS011;29973;43.742;1.236;2023-04-03T11:53:53;2.72;;;1.55;;
44276;SDS011;29973;43.742;1.236;2023-04-03T12:01:47;5.68;;;1.67;;
44276;SDS011;29973;43.742;1.236;2023-04-03T12:04:21;4.00;;;1.92;;
44276;SDS011;29973;43.742;1.236;2023-04-03T12:06:49;3.67;;;1.52;;
44276;SDS011;29973;43.742;1.236;2023-04-03T12:11:49;3.65;;;1.75;;
44276;SDS011;29973;43.742;1.236;2023-04-03T12:14:17;2.35;;;1.77;;
44276;SDS011;29973;43.742;1.236;2023-04-03T12:16:45;4.90;;;1.67;;
44276;SDS011;29973;43.742;1.236;2023-04-03T12:35:23;5.32;;;2.10;;
44276;SDS011;29973;43.742;1.236;2023-04-03T12:40:52;6.70;;;2.10;;
44276;SDS011;29973;43.742;1.236;2023-04-03T12:46:18;16.67;;;2.70;;
44276;SDS011;29973;43.742;1.236;2023-04-03T12:51:57;4.78;;;2.00;;
44276;SDS011;29973;43.742;1.236;2023-04-03T12:54:19;4.60;;;1.90;;
44276;SDS011;29973;43.742;1.236;2023-04-03T12:56:50;4.65;;;2.05;;
44276;SDS011;29973;43.742;1.236;2023-04-03T12:59:18;5.30;;;1.83;;
44276;SDS011;29973;43.742;1.236;2023-04-03T13:01:59;3.63;;;1.90;;
44276;SDS011;29973;43.742;1.236;2023-04-03T13:04:30;7.82;;;2.15;;
44276;SDS011;29973;43.742;1.236;2023-04-03T13:06:57;8.60;;;2.35;;
44276;SDS011;29973;43.742;1.236;2023-04-03T13:09:24;3.97;;;1.77;;
44276;SDS011;29973;43.742;1.236;2023-04-03T13:12:11;3.53;;;1.80;;
44276;SDS011;29973;43.742;1.236;2023-04-03T13:14:50;5.80;;;2.58;;
44276;SDS011;29973;43.742;1.236;2023-04-03T13:17:23;4.80;;;1.80;;
44276;SDS011;29973;43.742;1.236;2023-04-03T13:19:49;4.35;;;1.73;;
44276;SDS011;29973;43.742;1.236;2023-04-03T13:25:21;4.88;;;2.10;;
44276;SDS011;29973;43.742;1.236;2023-04-03T13:27:49;2.60;;;1.85;;
44276;SDS011;29973;43.742;1.236;2023-04-03T13:30:25;2.53;;;1.77;;
44276;SDS011;29973;43.742;1.236;2023-04-03T13:32:56;6.03;;;1.92;;
44276;SDS011;29973;43.742;1.236;2023-04-03T13:38:24;4.75;;;1.65;;
44276;SDS011;29973;43.742;1.236;2023-04-03T13:40:54;4.55;;;1.80;;
44276;SDS011;29973;43.742;1.236;2023-04-03T13:43:23;5.05;;;1.88;;
44276;SDS011;29973;43.742;1.236;2023-04-03T13:46:04;6.32;;;2.20;;
44276;SDS011;29973;43.742;1.236;2023-04-03T13:48:38;5.90;;;2.70;;
44276;SDS011;29973;43.742;1.236;2023-04-03T13:53:45;6.15;;;2.45;;
44276;SDS011;29973;43.742;1.236;2023-04-03T13:58:59;5.63;;;1.80;;
44276;SDS011;29973;43.742;1.236;2023-04-03T14:01:47;4.05;;;1.70;;
44276;SDS011;29973;43.742;1.236;2023-04-03T14:04:20;5.55;;;1.92;;
44276;SDS011;29973;43.742;1.236;2023-04-03T14:06:48;5.10;;;2.17;;
44276;SDS011;29973;43.742;1.236;2023-04-03T14:09:15;8.00;;;2.00;;
44276;SDS011;29973;43.742;1.236;2023-04-03T14:11:43;3.90;;;2.08;;
44276;SDS011;29973;43.742;1.236;2023-04-03T14:14:16;3.97;;;1.90;;
44276;SDS011;29973;43.742;1.236;2023-04-03T14:16:46;6.05;;;2.20;;
44276;SDS011;29973;43.742;1.236;2023-04-03T14:19:34;5.38;;;2.15;;
44276;SDS011;29973;43.742;1.236;2023-04-03T14:22:05;2.70;;;1.80;;
44276;SDS011;29973;43.742;1.236;2023-04-03T14:24:37;3.22;;;1.92;;
44276;SDS011;29973;43.742;1.236;2023-04-03T14:27:05;5.07;;;1.80;;
44276;SDS011;29973;43.742;1.236;2023-04-03T14:29:59;3.38;;;1.77;;
44276;SDS011;29973;43.742;1.236;2023-04-03T14:32:26;4.68;;;1.67;;
44276;SDS011;29973;43.742;1.236;2023-04-03T14:34:52;6.95;;;1.80;;
44276;SDS011;29973;43.742;1.236;2023-04-03T14:37:20;4.57;;;1.77;;
44276;SDS011;29973;43.742;1.236;2023-04-03T14:39:49;4.80;;;1.83;;
44276;SDS011;29973;43.742;1.236;2023-04-03T14:42:18;3.42;;;1.60;;
44276;SDS011;29973;43.742;1.236;2023-04-03T14:44:46;8.57;;;2.28;;
44276;SDS011;29973;43.742;1.236;2023-04-03T14:47:13;2.88;;;1.88;;
44276;SDS011;29973;43.742;1.236;2023-04-03T14:49:42;4.75;;;1.92;;
44276;SDS011;29973;43.742;1.236;2023-04-03T14:54:59;4.33;;;1.73;;
44276;SDS011;29973;43.742;1.236;2023-04-03T14:57:28;13.07;;;2.25;;
44276;SDS011;29973;43.742;1.236;2023-04-03T14:59:54;4.00;;;1.60;;
44276;SDS011;29973;43.742;1.236;2023-04-03T15:04:48;5.55;;;1.88;;
44276;SDS011;29973;43.742;1.236;2023-04-03T15:07:14;5.13;;;2.08;;
44276;SDS011;29973;43.742;1.236;2023-04-03T15:09:41;4.07;;;1.90;;
44276;SDS011;29973;43.742;1.236;2023-04-03T15:12:07;6.35;;;1.45;;
44276;SDS011;29973;43.742;1.236;2023-04-03T15:14:33;3.25;;;1.48;;
44276;SDS011;29973;43.742;1.236;2023-04-03T15:16:59;4.45;;;1.80;;
44276;SDS011;29973;43.742;1.236;2023-04-03T15:19:25;3.85;;;1.90;;
44276;SDS011;29973;43.742;1.236;2023-04-03T15:21:51;4.28;;;1.77;;
44276;SDS011;29973;43.742;1.236;2023-04-03T15:24:17;3.35;;;1.58;;
44276;SDS011;29973;43.742;1.236;2023-04-03T15:26:43;2.75;;;1.30;;
44276;SDS011;29973;43.742;1.236;2023-04-03T15:29:08;5.05;;;1.70;;
44276;SDS011;29973;43.742;1.236;2023-04-03T15:31:34;3.33;;;1.58;;
44276;SDS011;29973;43.742;1.236;2023-04-03T15:34:00;4.05;;;1.77;;
44276;SDS011;29973;43.742;1.236;2023-04-03T15:36:27;4.55;;;1.70;;
44276;SDS011;29973;43.742;1.236;2023-04-03T15:38:53;3.95;;;1.40;;
44276;SDS011;29973;43.742;1.236;2023-04-03T15:41:19;4.38;;;2.03;;
44276;SDS011;29973;43.742;1.236;2023-04-03T15:43:45;5.25;;;1.40;;
44276;SDS011;29973;43.742;1.236;2023-04-03T15:46:11;5.47;;;1.95;;
44276;SDS011;29973;43.742;1.236;2023-04-03T15:48:38;3.60;;;1.80;;
44276;SDS011;29973;43.742;1.236;2023-04-03T15:51:05;3.95;;;2.22;;
44276;SDS011;29973;43.742;1.236;2023-04-03T15:53:31;3.95;;;1.73;;
44276;SDS011;29973;43.742;1.236;2023-04-03T15:55:57;3.65;;;1.40;;
44276;SDS011;29973;43.742;1.236;2023-04-03T15:58:23;2.50;;;1.30;;
44276;SDS011;29973;43.742;1.236;2023-04-03T16:00:48;5.60;;;1.48;;
44276;SDS011;29973;43.742;1.236;2023-04-03T16:03:15;3.38;;;1.30;;
44276;SDS011;29973;43.742;1.236;2023-04-03T16:05:43;2.92;;;1.40;;
44276;SDS011;29973;43.742;1.236;2023-04-03T16:08:09;3.05;;;1.42;;
44276;SDS011;29973;43.742;1.236;2023-04-03T16:10:36;3.33;;;1.60;;
44276;SDS011;29973;43.742;1.236;2023-04-03T16:13:02;4.85;;;1.23;;
44276;SDS011;29973;43.742;1.236;2023-04-03T16:15:29;4.30;;;1.30;;
44276;SDS011;29973;43.742;1.236;2023-04-03T16:17:57;3.22;;;1.15;;
44276;SDS011;29973;43.742;1.236;2023-04-03T16:20:26;3.08;;;1.40;;
44276;SDS011;29973;43.742;1.236;2023-04-03T16:22:52;2.22;;;1.33;;
44276;SDS011;29973;43.742;1.236;2023-04-03T16:25:19;3.45;;;1.45;;
44276;SDS011;29973;43.742;1.236;2023-04-03T16:27:45;2.97;;;1.27;;
44276;SDS011;29973;43.742;1.236;2023-04-03T16:30:11;2.00;;;1.35;;
44276;SDS011;29973;43.742;1.236;2023-04-03T16:32:37;3.17;;;1.48;;
44276;SDS011;29973;43.742;1.236;2023-04-03T16:35:05;2.63;;;1.52;;
44276;SDS011;29973;43.742;1.236;2023-04-03T16:37:31;2.58;;;1.45;;
44276;SDS011;29973;43.742;1.236;2023-04-03T16:39:56;2.80;;;1.23;;
44276;SDS011;29973;43.742;1.236;2023-04-03T16:42:23;3.20;;;1.40;;
44276;SDS011;29973;43.742;1.236;2023-04-03T16:44:49;4.32;;;1.20;;
44276;SDS011;29973;43.742;1.236;2023-04-03T16:47:15;8.57;;;1.55;;
44276;SDS011;29973;43.742;1.236;2023-04-03T16:49:44;2.45;;;1.25;;